KSYI

Bomar Field-Shelbyville Municipal Airport

Shelbyville, Tennessee, USA
METAR KSYI 191855Z AUTO VRB04KT 10SM CLR 33/16 A3001 RMK A01
Observed Flight Rules
Sep-19 @ 18:55 UTC (25 minutes ago) Visual Flight Rules
Wind Visibility Clouds
Variable at 4 knots 10 miles
  • Clear skies
Temperatures Readings
Current 33°C / 91°F
Dewpoint 16°C / 61°F
Humidity 36%
Altimeter 30.01" Hg
Pressure 1016 hPa
Elevation 245
METAR KSYI 191855Z AUTO VRB04KT 10SM CLR 33/16 A3001 RMK A01
Observed Flight Rules
Sep-19 @ 18:55 UTC
(25 minutes ago)
VFR
Wind Visibility
Variable at 4 knots 10 miles
Clouds
  • Clear skies
Temperature Dewpoint
33°C / 91°F 16°C / 61°F
Humidity Altimeter Pressure
36% 30.01" Hg 1016 hPa